Time;durP1;ratioP1;P1;durP2;ratioP2;P2;SDS_P1;SDS_P2;PMS_P1;PMS_P2;Temp;Humidity;BMP_temperature;BMP_pressure;BME280_temperature;BME280_humidity;BME280_pressure;Samples;Min_cycle;Max_cycle;Signal;HPM_P1;HPM_P2
2022/06/02 00:01:22;;;;;;;3.57;3.23;;;19.60;57.20;;;;;;4989898;28;20456;-79
2022/06/02 00:04:08;;;;;;;3.40;2.90;;;19.60;57.10;;;;;;4985474;28;20208;-79
2022/06/02 00:06:56;;;;;;;5.43;2.63;;;19.60;57.20;;;;;;4987406;28;20441;-77
2022/06/02 00:09:43;;;;;;;5.10;3.20;;;19.50;57.20;;;;;;4951232;28;20554;-79
2022/06/02 00:12:27;;;;;;;4.03;2.83;;;19.50;57.30;;;;;;4990254;28;20444;-76
2022/06/02 00:15:19;;;;;;;4.43;2.93;;;19.40;58.30;;;;;;4989944;28;20437;-77
2022/06/02 00:18:20;;;;;;;8.83;2.60;;;19.40;57.70;;;;;;4989558;28;21027;-78
2022/06/02 00:20:46;;;;;;;3.70;2.70;;;19.30;57.60;;;;;;4980552;28;20436;-78
2022/06/02 00:23:38;;;;;;;3.37;3.07;;;19.30;58.00;;;;;;4989493;28;20475;-77
2022/06/02 00:26:15;;;;;;;3.30;2.73;;;19.20;58.00;;;;;;4971560;28;20184;-79
2022/06/02 00:28:56;;;;;;;5.07;2.60;;;19.30;57.90;;;;;;4993375;28;20460;-79
2022/06/02 00:32:13;;;;;;;3.57;2.93;;;19.30;57.80;;;;;;4994376;28;20501;-78
2022/06/02 00:34:47;;;;;;;4.70;2.67;;;19.20;58.00;;;;;;4963040;28;20440;-76
2022/06/02 00:37:40;;;;;;;3.57;2.93;;;19.20;58.00;;;;;;4990155;28;20444;-77
2022/06/02 00:40:07;;;;;;;3.17;2.87;;;19.20;58.20;;;;;;4988191;28;20433;-76
2022/06/02 00:42:49;;;;;;;5.73;2.70;;;19.10;58.10;;;;;;4991894;28;20445;-78
2022/06/02 00:45:18;;;;;;;6.80;3.07;;;19.10;58.50;;;;;;4992388;28;20524;-78
2022/06/02 00:48:20;;;;;;;3.67;3.20;;;19.00;58.50;;;;;;4990938;28;20759;-78
2022/06/02 00:50:52;;;;;;;3.30;3.00;;;19.00;58.70;;;;;;4989961;28;20948;-77
2022/06/02 00:53:40;;;;;;;3.40;2.83;;;19.00;58.80;;;;;;4990799;28;20539;-76
2022/06/02 00:59:41;;;;;;;3.10;2.70;;;19.10;58.70;;;;;;4992242;28;20544;-77
2022/06/02 01:02:07;;;;;;;3.63;2.73;;;19.10;58.70;;;;;;4972912;28;20447;-77
2022/06/02 01:04:38;;;;;;;6.37;2.83;;;19.00;58.80;;;;;;4969288;28;20463;-78
2022/06/02 01:07:19;;;;;;;4.53;2.80;;;19.00;58.80;;;;;;4988746;28;20262;-76
2022/06/02 01:10:38;;;;;;;3.83;2.63;;;19.00;58.80;;;;;;4991241;28;20842;-77
2022/06/02 01:13:16;;;;;;;5.07;2.90;;;19.00;59.20;;;;;;4947434;28;20606;-77
2022/06/02 01:16:03;;;;;;;3.20;2.90;;;18.90;59.10;;;;;;4990464;28;21022;-78
2022/06/02 01:18:49;;;;;;;4.60;2.90;;;18.90;59.20;;;;;;4990544;28;20948;-78
2022/06/02 01:21:24;;;;;;;3.73;2.97;;;18.90;59.20;;;;;;4987981;28;20439;-77
2022/06/02 01:24:19;;;;;;;3.80;3.27;;;18.90;59.30;;;;;;4989927;28;20449;-78
2022/06/02 01:26:57;;;;;;;6.73;3.43;;;18.80;59.40;;;;;;4989486;28;20441;-76
2022/06/02 01:29:47;;;;;;;3.53;2.60;;;18.80;59.50;;;;;;4988499;28;20464;-76
2022/06/02 01:32:20;;;;;;;3.20;2.90;;;18.80;59.40;;;;;;4990137;28;20440;-78
2022/06/02 01:35:07;;;;;;;3.13;2.80;;;18.80;59.60;;;;;;4984521;28;20432;-79
2022/06/02 01:37:56;;;;;;;4.00;3.00;;;18.80;59.80;;;;;;4989496;28;20433;-77
2022/06/02 01:40:46;;;;;;;3.97;3.03;;;18.80;59.80;;;;;;4973007;28;20437;-77
2022/06/02 01:43:24;;;;;;;3.93;2.90;;;18.70;60.00;;;;;;4974180;28;20467;-78
2022/06/02 01:46:14;;;;;;;3.63;3.33;;;18.70;59.90;;;;;;4988648;28;20423;-78
2022/06/02 01:48:42;;;;;;;5.43;3.00;;;18.70;60.00;;;;;;4987972;28;20554;-76
2022/06/02 01:51:34;;;;;;;5.03;3.20;;;18.70;60.00;;;;;;4989873;28;20926;-77
2022/06/02 01:54:39;;;;;;;6.27;3.10;;;18.70;60.20;;;;;;4973290;28;20457;-76
2022/06/02 01:57:35;;;;;;;4.03;2.90;;;18.60;60.50;;;;;;4986919;28;20869;-77
2022/06/02 02:00:19;;;;;;;3.90;2.93;;;18.60;60.60;;;;;;4986300;28;20540;-75
2022/06/02 02:03:25;;;;;;;3.40;3.10;;;18.50;60.90;;;;;;4987609;28;20464;-77
2022/06/02 02:05:51;;;;;;;4.10;2.80;;;18.40;61.10;;;;;;4987407;28;20438;-78
2022/06/02 02:08:39;;;;;;;5.73;3.30;;;18.50;61.40;;;;;;4990344;28;20967;-77
2022/06/02 02:11:11;;;;;;;3.57;3.23;;;18.50;61.60;;;;;;4985745;28;20189;-78
2022/06/02 02:13:54;;;;;;;3.40;3.00;;;18.40;61.80;;;;;;4988117;28;20460;-78
2022/06/02 02:16:37;;;;;;;3.60;3.10;;;18.30;62.40;;;;;;4990753;28;20439;-78
2022/06/02 02:19:23;;;;;;;3.40;3.10;;;18.30;62.20;;;;;;4986689;28;20443;-78
2022/06/02 02:22:12;;;;;;;4.17;2.80;;;18.30;62.20;;;;;;4985681;28;20460;-79
2022/06/02 02:25:02;;;;;;;5.53;3.20;;;18.30;62.50;;;;;;4993051;28;21018;-76
2022/06/02 02:28:11;;;;;;;3.43;3.10;;;18.20;62.70;;;;;;4991823;28;20495;-78
2022/06/02 02:31:05;;;;;;;4.33;3.20;;;18.20;62.90;;;;;;4906353;29;20579;-79
2022/06/02 02:33:49;;;;;;;3.30;3.00;;;18.20;63.30;;;;;;4985266;28;20449;-80
2022/06/02 02:36:43;;;;;;;4.10;3.37;;;18.10;63.20;;;;;;4986579;28;20429;-80
2022/06/02 02:39:41;;;;;;;4.70;3.30;;;18.00;63.50;;;;;;4986537;28;20451;-79
2022/06/02 02:42:28;;;;;;;4.87;3.27;;;18.00;63.60;;;;;;4951618;28;20986;-78
2022/06/02 02:44:57;;;;;;;3.47;3.17;;;17.90;64.10;;;;;;4986721;28;20813;-78
2022/06/02 02:47:44;;;;;;;3.43;3.13;;;17.90;64.40;;;;;;4987697;28;20445;-80
2022/06/02 02:50:27;;;;;;;4.37;3.30;;;18.00;64.40;;;;;;4982707;28;20452;-76
2022/06/02 02:53:30;;;;;;;4.37;3.57;;;18.00;64.60;;;;;;4987829;28;20449;-78
2022/06/02 02:56:09;;;;;;;4.83;3.50;;;18.00;64.60;;;;;;4986459;28;20841;-77
2022/06/02 02:58:38;;;;;;;4.80;3.30;;;17.90;64.60;;;;;;4987442;28;20443;-78
2022/06/02 03:01:21;;;;;;;4.90;3.53;;;17.90;64.90;;;;;;4986554;28;20457;-79
2022/06/02 03:04:07;;;;;;;4.27;3.57;;;18.00;65.20;;;;;;4988097;28;20499;-77
2022/06/02 03:06:36;;;;;;;4.93;3.60;;;17.90;65.40;;;;;;4980261;28;20441;-78
2022/06/02 03:09:22;;;;;;;4.17;3.40;;;17.90;65.40;;;;;;4995803;28;20829;-78
2022/06/02 03:11:54;;;;;;;3.87;3.57;;;17.80;66.00;;;;;;4986526;28;20437;-78
2022/06/02 03:14:48;;;;;;;5.40;4.07;;;17.80;65.90;;;;;;4990918;28;21001;-77
2022/06/02 03:17:34;;;;;;;5.93;4.20;;;17.80;66.10;;;;;;4990819;28;20452;-77
2022/06/02 03:20:37;;;;;;;4.30;3.50;;;17.80;66.30;;;;;;4992658;28;20495;-77
2022/06/02 03:23:23;;;;;;;4.23;3.83;;;17.70;66.60;;;;;;4969935;28;20460;-78
2022/06/02 03:26:27;;;;;;;6.63;3.47;;;17.70;66.80;;;;;;4986353;28;20444;-78
2022/06/02 03:29:15;;;;;;;3.40;3.10;;;17.70;67.30;;;;;;4942872;28;20555;-78
2022/06/02 03:31:50;;;;;;;6.20;3.67;;;17.70;67.50;;;;;;4989688;28;20508;-79
2022/06/02 03:34:19;;;;;;;5.60;3.43;;;17.60;67.60;;;;;;4986895;28;20834;-77
2022/06/02 03:37:24;;;;;;;4.07;3.67;;;17.60;67.70;;;;;;4991144;28;20527;-78
2022/06/02 03:40:05;;;;;;;5.40;4.03;;;17.60;68.00;;;;;;4988313;28;20507;-79
2022/06/02 03:42:38;;;;;;;5.90;4.07;;;17.50;68.60;;;;;;4989756;28;20550;-79
2022/06/02 03:45:43;;;;;;;7.93;3.93;;;17.40;68.80;;;;;;4989328;28;21192;-77
2022/06/02 03:48:14;;;;;;;4.17;3.60;;;17.40;69.00;;;;;;4978791;28;20832;-76
2022/06/02 03:50:50;;;;;;;4.10;3.47;;;17.40;69.00;;;;;;4967975;28;20448;-76
2022/06/02 03:53:27;;;;;;;7.00;3.67;;;17.20;69.90;;;;;;4984481;28;20452;-77
2022/06/02 03:56:02;;;;;;;5.13;3.90;;;17.20;69.90;;;;;;4986789;28;21091;-77
2022/06/02 03:59:22;;;;;;;10.43;3.97;;;17.20;70.00;;;;;;4986552;28;21192;-76
2022/06/02 04:01:58;;;;;;;5.10;3.87;;;17.20;70.10;;;;;;4926160;28;20448;-79
2022/06/02 04:04:48;;;;;;;4.43;4.03;;;17.30;70.60;;;;;;4987533;28;20998;-78
2022/06/02 04:07:17;;;;;;;3.93;3.53;;;17.30;70.90;;;;;;4987110;28;20441;-79
2022/06/02 04:10:07;;;;;;;4.23;3.83;;;17.30;71.10;;;;;;4992072;28;20556;-80
2022/06/02 04:15:47;;;;;;;5.83;3.70;;;17.20;71.60;;;;;;4982198;28;20883;-77
2022/06/02 04:18:40;;;;;;;3.87;3.47;;;17.20;71.90;;;;;;4984544;28;20433;-79
2022/06/02 04:21:15;;;;;;;4.67;4.17;;;17.20;72.10;;;;;;4986562;28;20469;-78
2022/06/02 04:24:32;;;;;;;4.00;3.60;;;17.20;71.90;;;;;;4984418;28;20464;-81
2022/06/02 04:27:07;;;;;;;4.40;3.73;;;17.20;72.20;;;;;;4944487;28;20451;-79
2022/06/02 04:30:00;;;;;;;5.27;3.73;;;17.20;72.10;;;;;;4986950;28;20464;-80
2022/06/02 04:32:40;;;;;;;4.00;3.60;;;17.10;72.60;;;;;;4987104;28;20869;-80
2022/06/02 04:35:25;;;;;;;4.97;3.67;;;17.10;73.00;;;;;;4985939;28;20531;-78
2022/06/02 04:37:57;;;;;;;7.47;4.13;;;17.10;73.30;;;;;;4981610;28;20487;-80
2022/06/02 04:41:00;;;;;;;6.90;4.00;;;17.10;73.50;;;;;;4989724;28;21095;-81
2022/06/02 04:43:48;;;;;;;4.50;3.83;;;17.20;73.80;;;;;;4992604;28;20460;-80
2022/06/02 04:46:39;;;;;;;13.53;4.23;;;17.20;74.00;;;;;;4985909;28;20441;-79
2022/06/02 04:49:17;;;;;;;4.70;4.13;;;17.30;74.00;;;;;;4990174;28;20472;-79
2022/06/02 04:51:57;;;;;;;10.90;4.57;;;17.20;74.10;;;;;;4972800;28;20444;-78
2022/06/02 04:54:50;;;;;;;4.10;3.70;;;17.20;74.30;;;;;;4985981;28;20484;-79
2022/06/02 04:57:47;;;;;;;7.70;4.13;;;17.20;74.40;;;;;;4987965;28;20487;-78
2022/06/02 05:00:21;;;;;;;5.23;4.40;;;17.20;74.60;;;;;;4986630;28;20524;-78
2022/06/02 05:02:56;;;;;;;3.97;3.67;;;17.10;74.80;;;;;;4986912;28;20462;-77
2022/06/02 05:05:31;;;;;;;5.30;3.70;;;17.10;75.00;;;;;;4985079;28;20502;-79
2022/06/02 05:08:34;;;;;;;5.97;4.30;;;17.10;75.50;;;;;;4986941;28;20530;-79
2022/06/02 05:11:25;;;;;;;7.60;4.13;;;17.10;75.30;;;;;;4966625;28;20467;-78
2022/06/02 05:14:35;;;;;;;5.07;4.00;;;17.00;75.70;;;;;;4991140;28;20451;-79
2022/06/02 05:17:21;;;;;;;5.60;3.90;;;17.00;75.90;;;;;;4968493;28;20891;-80
2022/06/02 05:19:53;;;;;;;4.00;3.63;;;17.00;76.60;;;;;;4988153;28;20437;-80
2022/06/02 05:22:37;;;;;;;4.60;3.93;;;17.00;76.60;;;;;;4988594;28;21047;-80
2022/06/02 05:25:20;;;;;;;4.70;3.93;;;17.10;76.80;;;;;;4991075;28;20487;-79
2022/06/02 05:28:04;;;;;;;4.70;3.40;;;17.10;77.00;;;;;;4968508;28;20429;-78
2022/06/02 05:31:00;;;;;;;6.43;4.10;;;17.20;77.30;;;;;;4986878;28;20445;-80
2022/06/02 05:33:38;;;;;;;5.07;3.50;;;17.10;77.40;;;;;;4968537;28;21192;-78
2022/06/02 05:36:06;;;;;;;6.70;3.67;;;17.10;77.90;;;;;;4989384;28;20429;-79
2022/06/02 05:38:38;;;;;;;4.97;3.57;;;17.20;78.00;;;;;;4987104;28;20563;-74
2022/06/02 05:41:34;;;;;;;5.90;3.70;;;17.30;78.00;;;;;;4982807;28;20447;-75
2022/06/02 05:43:59;;;;;;;4.43;3.43;;;17.30;77.80;;;;;;4979534;28;20488;-75
2022/06/02 05:46:43;;;;;;;3.43;3.13;;;17.40;77.60;;;;;;4981630;28;20434;-76
2022/06/02 05:49:36;;;;;;;6.63;3.93;;;17.50;77.70;;;;;;4979530;28;20205;-74
2022/06/02 05:52:22;;;;;;;4.07;3.67;;;17.50;77.60;;;;;;4981246;28;20437;-74
2022/06/02 05:55:23;;;;;;;4.97;3.63;;;17.60;77.50;;;;;;4982889;28;21008;-76
2022/06/02 05:58:00;;;;;;;4.00;3.60;;;17.60;77.60;;;;;;4985569;28;20531;-77
2022/06/02 06:00:46;;;;;;;4.20;3.80;;;17.60;77.30;;;;;;4983271;28;20467;-76
2022/06/02 06:03:17;;;;;;;4.97;3.83;;;17.70;77.60;;;;;;4984681;28;20535;-78
2022/06/02 06:06:07;;;;;;;4.83;3.77;;;17.70;77.60;;;;;;4983079;28;20444;-77
2022/06/02 06:08:57;;;;;;;8.47;3.90;;;17.80;77.60;;;;;;4971552;28;20523;-76
2022/06/02 06:11:47;;;;;;;5.87;3.67;;;17.80;78.00;;;;;;4985088;28;20448;-77
2022/06/02 06:14:16;;;;;;;5.90;3.60;;;17.90;77.70;;;;;;4963911;28;20459;-77
2022/06/02 06:17:13;;;;;;;3.80;3.50;;;17.90;77.80;;;;;;4980606;28;21087;-77
2022/06/02 06:20:03;;;;;;;4.50;3.67;;;18.00;77.00;;;;;;4986910;28;20960;-79
2022/06/02 06:22:41;;;;;;;3.80;3.40;;;18.20;76.20;;;;;;4983277;28;21038;-78
2022/06/02 06:25:12;;;;;;;5.50;3.60;;;18.20;75.70;;;;;;4980489;28;20443;-78
2022/06/02 06:28:06;;;;;;;5.73;3.63;;;18.20;75.50;;;;;;4983576;28;20866;-75
2022/06/02 06:30:57;;;;;;;7.23;3.30;;;18.20;75.30;;;;;;4985193;28;20451;-77
2022/06/02 06:33:44;;;;;;;3.43;3.13;;;18.20;75.40;;;;;;4985903;28;20467;-77
2022/06/02 06:36:13;;;;;;;5.70;3.10;;;18.30;75.20;;;;;;4983561;28;20445;-75
2022/06/02 06:38:51;;;;;;;6.03;3.40;;;18.20;75.30;;;;;;4986949;28;20445;-78
2022/06/02 06:41:29;;;;;;;3.30;3.00;;;18.20;75.80;;;;;;4986189;28;20445;-77
2022/06/02 06:44:09;;;;;;;4.40;3.43;;;18.30;75.30;;;;;;4987435;28;20460;-77
2022/06/02 06:46:44;;;;;;;6.07;3.20;;;18.30;75.20;;;;;;4983026;28;20444;-78
2022/06/02 06:49:33;;;;;;;5.90;3.00;;;18.30;75.60;;;;;;4984912;28;20475;-77
2022/06/02 06:52:16;;;;;;;3.17;2.87;;;18.40;75.20;;;;;;4982946;28;20429;-76
2022/06/02 06:54:54;;;;;;;4.10;3.67;;;18.40;75.00;;;;;;4984292;28;20441;-79
2022/06/02 06:57:23;;;;;;;4.90;3.73;;;18.40;74.40;;;;;;4987172;28;20487;-78
2022/06/02 07:00:24;;;;;;;7.27;4.43;;;18.40;74.40;;;;;;4988083;28;20441;-77
2022/06/02 07:02:49;;;;;;;4.13;3.40;;;18.40;74.70;;;;;;4962552;28;20484;-78
2022/06/02 07:05:31;;;;;;;3.47;3.00;;;18.50;74.00;;;;;;4991445;28;20467;-78
2022/06/02 07:08:18;;;;;;;4.87;3.10;;;18.60;71.00;;;;;;4987726;28;20257;-79
2022/06/02 07:14:32;;;;;;;5.67;2.87;;;18.70;67.30;;;;;;4983542;28;20506;-76
2022/06/02 07:17:03;;;;;;;3.00;2.70;;;18.70;65.50;;;;;;4975573;28;20441;-78
2022/06/02 07:19:45;;;;;;;3.50;3.20;;;18.80;66.20;;;;;;4987150;28;20445;-78
2022/06/02 07:22:24;;;;;;;3.90;3.20;;;18.80;66.10;;;;;;4985180;28;20445;-77
2022/06/02 07:25:26;;;;;;;4.23;3.83;;;18.80;65.70;;;;;;4985382;28;20440;-79
2022/06/02 07:28:14;;;;;;;6.80;5.50;;;18.90;66.00;;;;;;4984190;28;20463;-77
2022/06/02 07:30:43;;;;;;;3.73;3.33;;;18.90;66.80;;;;;;4983898;28;20536;-75
2022/06/02 07:33:20;;;;;;;5.20;4.00;;;19.00;66.90;;;;;;4981830;28;20461;-77
2022/06/02 07:36:01;;;;;;;4.93;3.70;;;19.10;66.60;;;;;;4981500;28;20692;-77
2022/06/02 07:38:45;;;;;;;6.67;6.07;;;19.10;64.30;;;;;;4982180;28;20444;-75
2022/06/02 07:41:29;;;;;;;3.63;3.07;;;19.10;64.60;;;;;;4984715;28;20499;-77
2022/06/02 07:44:46;;;;;;;7.33;5.00;;;19.20;64.70;;;;;;4967541;28;20455;-74
2022/06/02 07:47:55;;;;;;;4.13;3.23;;;19.30;64.70;;;;;;4926578;28;20437;-76
2022/06/02 07:50:24;;;;;;;5.77;2.83;;;19.30;65.50;;;;;;4947606;28;20858;-77
2022/06/02 07:53:08;;;;;;;3.40;3.10;;;19.30;66.60;;;;;;4979639;28;20518;-75
2022/06/02 07:55:53;;;;;;;5.90;3.07;;;19.30;66.00;;;;;;4966611;28;20441;-76
2022/06/02 07:58:46;;;;;;;4.93;3.03;;;19.40;64.70;;;;;;4981497;28;21067;-76
2022/06/02 08:01:17;;;;;;;2.93;2.63;;;19.40;63.50;;;;;;4978008;28;20510;-74
2022/06/02 08:04:01;;;;;;;3.17;2.87;;;19.40;62.60;;;;;;4987243;28;20460;-74
2022/06/02 08:06:30;;;;;;;4.97;2.77;;;19.50;62.60;;;;;;4981099;28;20437;-77
2022/06/02 08:09:17;;;;;;;2.77;2.57;;;19.60;61.60;;;;;;4980801;28;20467;-76
2022/06/02 08:11:48;;;;;;;4.30;3.03;;;19.70;60.70;;;;;;4981563;28;20432;-74
2022/06/02 08:14:26;;;;;;;11.13;10.03;;;19.70;59.30;;;;;;4982931;28;20471;-75
2022/06/02 08:17:01;;;;;;;6.47;5.80;;;19.80;58.70;;;;;;4985677;28;21085;-76
2022/06/02 08:19:34;;;;;;;3.90;3.50;;;19.80;58.40;;;;;;4984332;28;20532;-75
2022/06/02 08:22:04;;;;;;;4.90;3.70;;;19.80;58.20;;;;;;4966236;28;20472;-77
2022/06/02 08:24:54;;;;;;;6.03;5.00;;;19.80;58.80;;;;;;4985186;28;20539;-76
2022/06/02 08:27:48;;;;;;;4.60;4.20;;;19.90;58.70;;;;;;4988394;28;20449;-76
2022/06/02 08:30:29;;;;;;;5.70;4.60;;;19.90;58.70;;;;;;4990491;28;20484;-77
2022/06/02 08:33:00;;;;;;;4.33;4.00;;;19.90;59.30;;;;;;4985081;28;20456;-76
2022/06/02 08:35:33;;;;;;;4.13;3.70;;;20.00;59.10;;;;;;4983735;28;20441;-76
2022/06/02 08:38:10;;;;;;;6.13;3.27;;;20.10;58.60;;;;;;4984020;28;20490;-74
2022/06/02 08:40:48;;;;;;;5.47;3.30;;;20.10;58.80;;;;;;4987335;28;20488;-73
2022/06/02 08:43:29;;;;;;;3.07;2.77;;;20.20;59.60;;;;;;4985088;28;20629;-74
2022/06/02 08:46:16;;;;;;;3.40;2.70;;;20.20;59.90;;;;;;4986009;28;20436;-77
2022/06/02 08:49:19;;;;;;;4.27;2.93;;;20.40;60.10;;;;;;4987083;28;20500;-75
2022/06/02 08:52:09;;;;;;;2.80;2.60;;;20.40;60.00;;;;;;4982775;28;20808;-79
2022/06/02 08:54:57;;;;;;;5.90;5.30;;;20.30;59.80;;;;;;4985565;28;20457;-77
2022/06/02 08:57:41;;;;;;;5.57;4.70;;;20.40;59.70;;;;;;4974766;28;20451;-78
2022/06/02 09:00:43;;;;;;;3.23;2.93;;;20.40;59.10;;;;;;4982463;28;20456;-75
2022/06/02 09:03:41;;;;;;;4.47;2.63;;;20.60;59.10;;;;;;4968794;28;20519;-76
2022/06/02 09:06:25;;;;;;;3.80;3.37;;;20.60;58.80;;;;;;4965903;28;20952;-78
2022/06/02 09:09:28;;;;;;;5.20;3.33;;;20.60;59.30;;;;;;4983733;28;20597;-76
2022/06/02 09:12:13;;;;;;;4.17;2.70;;;20.70;59.70;;;;;;4992270;28;20468;-78
2022/06/02 09:15:06;;;;;;;3.27;2.43;;;20.80;58.70;;;;;;4969063;28;20506;-78
2022/06/02 09:17:45;;;;;;;3.73;2.77;;;20.90;57.20;;;;;;4982600;28;20463;-76
2022/06/02 09:20:18;;;;;;;3.20;2.47;;;21.00;55.30;;;;;;4984320;28;20437;-75
2022/06/02 09:23:02;;;;;;;2.87;2.50;;;21.10;55.40;;;;;;4990015;28;20460;-77
2022/06/02 09:25:46;;;;;;;2.57;2.37;;;21.20;55.60;;;;;;4987308;28;21019;-77
2022/06/02 09:28:17;;;;;;;3.07;2.70;;;21.20;56.60;;;;;;4985821;28;21067;-78
2022/06/02 09:31:04;;;;;;;4.63;2.90;;;21.20;57.10;;;;;;4989012;28;21035;-79
2022/06/02 09:34:07;;;;;;;4.87;2.30;;;21.30;56.30;;;;;;4985708;28;20449;-78
2022/06/02 09:37:04;;;;;;;4.50;4.10;;;21.50;56.40;;;;;;4983818;28;20464;-76
2022/06/02 09:40:09;;;;;;;5.53;2.60;;;21.60;56.30;;;;;;4987207;28;20447;-78
2022/06/02 09:42:54;;;;;;;3.90;3.10;;;21.60;55.60;;;;;;4963194;28;20472;-78
2022/06/02 09:45:47;;;;;;;4.10;3.20;;;21.60;55.80;;;;;;4983813;28;21381;-77
2022/06/02 09:48:33;;;;;;;3.47;2.80;;;21.70;55.00;;;;;;4990469;28;20460;-76
2022/06/02 09:51:30;;;;;;;3.13;2.83;;;21.80;55.40;;;;;;4982442;28;20957;-77
2022/06/02 09:54:19;;;;;;;3.90;2.90;;;21.80;55.40;;;;;;4983610;28;21001;-78
2022/06/02 10:00:24;;;;;;;3.50;2.63;;;22.00;55.10;;;;;;4983579;28;20452;-76
2022/06/02 10:03:04;;;;;;;3.03;2.83;;;22.10;54.60;;;;;;4963600;28;20461;-78
2022/06/02 10:05:56;;;;;;;2.90;2.17;;;22.10;54.60;;;;;;4965121;28;20441;-77
2022/06/02 10:09:09;;;;;;;4.53;2.93;;;22.20;54.40;;;;;;4987698;28;20453;-80
2022/06/02 10:11:53;;;;;;;11.03;2.73;;;22.30;54.80;;;;;;4937578;28;20863;-75
2022/06/02 10:14:30;;;;;;;3.97;2.40;;;22.40;54.50;;;;;;4979833;28;20456;-78
2022/06/02 10:17:47;;;;;;;3.50;3.00;;;22.40;54.50;;;;;;4983783;28;21070;-78
2022/06/02 10:20:26;;;;;;;8.53;5.30;;;22.50;54.00;;;;;;4948529;28;20464;-80
2022/06/02 10:23:13;;;;;;;3.17;2.47;;;22.50;54.20;;;;;;4983734;28;20456;-76
2022/06/02 10:26:20;;;;;;;2.80;2.60;;;22.60;53.90;;;;;;4987086;28;20463;-76
2022/06/02 10:29:14;;;;;;;4.70;2.60;;;22.50;53.30;;;;;;4963240;28;20468;-76
2022/06/02 10:32:07;;;;;;;4.00;3.00;;;22.60;53.20;;;;;;4983741;28;20440;-77
2022/06/02 10:34:54;;;;;;;2.97;2.67;;;22.50;53.90;;;;;;4981196;28;20459;-78
2022/06/02 10:37:35;;;;;;;3.77;2.63;;;22.60;54.80;;;;;;4980869;28;20852;-76
2022/06/02 10:40:12;;;;;;;3.07;2.67;;;22.70;54.10;;;;;;4981636;28;20952;-76
2022/06/02 10:43:04;;;;;;;3.23;2.30;;;22.80;54.50;;;;;;4983625;28;20460;-78
2022/06/02 10:45:50;;;;;;;2.60;2.40;;;22.80;53.40;;;;;;4975830;28;20445;-76
2022/06/02 10:48:26;;;;;;;2.63;2.43;;;23.00;54.00;;;;;;4984184;28;20468;-76
2022/06/02 10:51:06;;;;;;;2.80;2.60;;;23.10;53.70;;;;;;4981923;28;20816;-77
2022/06/02 10:53:56;;;;;;;3.27;2.73;;;23.10;53.70;;;;;;4980513;28;21196;-76
2022/06/02 10:56:47;;;;;;;4.50;2.80;;;23.30;53.70;;;;;;4982651;28;20857;-75
2022/06/02 10:59:34;;;;;;;3.80;2.80;;;23.40;53.30;;;;;;4985259;28;20444;-78
2022/06/02 11:02:30;;;;;;;3.10;2.80;;;23.50;53.60;;;;;;4984064;28;21114;-76
2022/06/02 11:05:30;;;;;;;2.80;2.57;;;23.70;53.20;;;;;;4982776;28;20445;-78
2022/06/02 11:08:34;;;;;;;2.95;2.20;;;23.80;52.80;;;;;;4983461;28;20448;-78
2022/06/02 11:11:08;;;;;;;2.77;2.40;;;23.90;52.80;;;;;;4986563;28;20458;-76
2022/06/02 11:13:55;;;;;;;2.77;2.57;;;24.10;52.80;;;;;;4985514;28;20460;-77
2022/06/02 11:16:43;;;;;;;2.53;2.30;;;24.10;52.40;;;;;;4988576;28;20991;-78
2022/06/02 11:19:15;;;;;;;3.13;2.47;;;24.30;52.40;;;;;;4945467;28;20437;-76
2022/06/02 11:21:44;;;;;;;6.27;2.67;;;24.50;52.70;;;;;;4970980;28;21044;-76
2022/06/02 11:24:25;;;;;;;2.87;2.67;;;24.70;52.30;;;;;;4988195;28;20480;-77
2022/06/02 11:27:27;;;;;;;3.23;2.43;;;24.90;51.80;;;;;;4990204;28;20424;-77
2022/06/02 11:30:22;;;;;;;2.50;2.30;;;25.00;51.70;;;;;;4986735;28;20475;-78
2022/06/02 11:33:13;;;;;;;3.50;2.73;;;25.20;51.40;;;;;;4966904;28;20824;-75
2022/06/02 11:36:17;;;;;;;4.97;4.10;;;25.40;50.90;;;;;;4980586;28;20456;-76
2022/06/02 11:39:00;;;;;;;6.00;3.27;;;25.70;50.50;;;;;;4985293;28;20468;-77
2022/06/02 11:41:57;;;;;;;4.33;3.43;;;25.70;50.10;;;;;;4984859;28;20443;-79
2022/06/02 11:44:32;;;;;;;3.27;2.97;;;25.90;50.30;;;;;;4964804;28;20464;-76
2022/06/02 11:47:19;;;;;;;3.60;2.60;;;26.20;50.40;;;;;;4964867;28;20793;-78
2022/06/02 11:50:19;;;;;;;7.03;2.90;;;26.40;49.40;;;;;;4982924;28;20522;-75
2022/06/02 11:53:04;;;;;;;4.50;3.20;;;26.60;49.50;;;;;;4984356;28;20467;-76
2022/06/02 11:55:54;;;;;;;3.17;2.87;;;26.80;49.10;;;;;;4991582;28;20432;-78
2022/06/02 11:58:53;;;;;;;4.23;2.47;;;27.10;48.50;;;;;;4988164;28;20500;-76
2022/06/02 12:01:39;;;;;;;4.93;2.63;;;27.60;47.90;;;;;;4989945;28;20460;-76
2022/06/02 12:04:17;;;;;;;4.47;2.80;;;28.40;47.70;;;;;;4994040;28;20540;-79
2022/06/02 12:07:15;;;;;;;3.23;2.47;;;29.20;47.00;;;;;;5003531;28;20428;-77
2022/06/02 12:09:47;;;;;;;2.67;2.47;;;29.40;45.60;;;;;;5005654;28;20452;-78
2022/06/02 12:12:35;;;;;;;5.80;5.30;;;29.60;44.70;;;;;;5001798;28;20437;-77
2022/06/02 12:15:23;;;;;;;2.77;2.57;;;29.50;44.60;;;;;;4994325;28;20438;-76
2022/06/02 12:18:12;;;;;;;4.10;3.27;;;29.30;44.70;;;;;;4991830;28;20437;-76
2022/06/02 12:20:47;;;;;;;5.07;3.13;;;28.90;45.00;;;;;;4989687;28;20443;-76
2022/06/02 12:23:43;;;;;;;6.70;5.57;;;28.40;45.00;;;;;;4990638;28;20444;-77
2022/06/02 12:26:20;;;;;;;4.43;3.27;;;28.50;45.40;;;;;;4993626;28;20481;-77
2022/06/02 12:28:57;;;;;;;3.53;2.70;;;28.30;45.50;;;;;;4989622;28;20541;-76
2022/06/02 12:31:53;;;;;;;4.47;3.17;;;28.10;45.40;;;;;;4998655;28;20837;-76
2022/06/02 12:34:50;;;;;;;4.07;2.80;;;28.00;45.70;;;;;;4991802;28;20468;-76
2022/06/02 12:37:28;;;;;;;3.00;2.50;;;27.90;45.70;;;;;;4988061;28;20436;-77
2022/06/02 12:40:25;;;;;;;4.03;2.73;;;27.80;46.00;;;;;;4985917;28;20532;-79
2022/06/02 12:42:59;;;;;;;3.23;2.83;;;27.70;45.70;;;;;;4992790;28;20456;-76
2022/06/02 12:45:48;;;;;;;3.70;2.77;;;27.60;45.90;;;;;;4989838;28;20428;-77
2022/06/02 12:48:38;;;;;;;3.37;3.00;;;27.70;46.30;;;;;;4988074;28;20415;-76
2022/06/02 12:51:10;;;;;;;3.97;2.63;;;27.60;46.30;;;;;;4988381;28;21046;-77
2022/06/02 12:53:36;;;;;;;3.30;2.57;;;27.60;46.20;;;;;;4986676;28;20583;-77
2022/06/02 12:56:10;;;;;;;5.03;3.03;;;27.70;46.30;;;;;;4987840;28;20515;-76
2022/06/02 12:59:10;;;;;;;3.10;2.80;;;27.90;45.80;;;;;;4987429;28;20212;-79
2022/06/02 13:01:42;;;;;;;3.60;2.77;;;28.60;45.90;;;;;;4979018;28;20443;-77
2022/06/02 13:04:34;;;;;;;4.67;3.03;;;30.10;44.90;;;;;;4986618;28;20461;-78
2022/06/02 13:07:37;;;;;;;2.90;2.60;;;31.40;43.30;;;;;;4987107;28;20905;-79
2022/06/02 13:10:24;;;;;;;2.53;2.30;;;32.30;42.00;;;;;;4970431;28;20991;-76
2022/06/02 13:13:06;;;;;;;3.37;2.30;;;32.90;40.90;;;;;;4997709;22;20499;-67
2022/06/02 13:15:53;;;;;;;4.67;2.70;;;33.70;40.50;;;;;;5011245;28;20886;-67
2022/06/02 13:18:37;;;;;;;3.67;2.10;;;34.50;40.10;;;;;;5016204;28;20442;-66
2022/06/02 13:21:20;;;;;;;4.10;2.33;;;35.00;38.60;;;;;;5019783;28;20479;-67
2022/06/02 13:24:05;;;;;;;2.60;2.40;;;35.50;37.70;;;;;;5017362;28;20873;-67
2022/06/02 13:26:49;;;;;;;2.40;2.20;;;35.50;37.60;;;;;;5016299;28;20465;-67
2022/06/02 13:29:34;;;;;;;4.87;2.20;;;35.40;37.20;;;;;;5017528;28;20528;-67
2022/06/02 13:32:02;;;;;;;2.80;2.23;;;35.70;36.50;;;;;;5017675;28;20422;-67
2022/06/02 13:34:42;;;;;;;3.30;3.00;;;35.10;36.70;;;;;;5015708;28;20465;-67
2022/06/02 13:37:28;;;;;;;2.63;2.43;;;35.30;37.10;;;;;;5015757;28;20522;-67
2022/06/02 13:40:12;;;;;;;2.73;2.53;;;35.80;35.80;;;;;;5017991;28;20406;-67
2022/06/02 13:43:08;;;;;;;2.80;2.43;;;35.80;35.70;;;;;;5002417;28;20958;-67
2022/06/02 13:46:03;;;;;;;2.90;2.20;;;35.70;34.60;;;;;;5014018;28;20440;-67
2022/06/02 13:49:05;;;;;;;3.60;2.37;;;35.50;35.10;;;;;;5012795;28;20452;-67
2022/06/02 13:51:37;;;;;;;3.60;2.60;;;34.90;35.90;;;;;;5017372;28;20883;-67
2022/06/02 13:57:46;;;;;;;4.10;2.37;;;34.90;36.20;;;;;;5016910;28;20502;-67
2022/06/02 14:00:49;;;;;;;3.23;2.53;;;36.20;36.30;;;;;;5016700;28;20450;-67
2022/06/02 14:04:12;;;;;;;2.50;2.30;;;36.30;35.70;;;;;;5018172;28;20424;-67
2022/06/02 14:06:55;;;;;;;3.47;2.50;;;37.60;35.00;;;;;;4934719;29;20549;-67
2022/06/02 14:09:44;;;;;;;2.43;2.23;;;38.70;33.70;;;;;;4939138;29;20559;-68
2022/06/02 14:12:20;;;;;;;3.80;3.50;;;39.90;33.30;;;;;;4992220;28;20485;-67
2022/06/02 14:14:52;;;;;;;3.53;3.23;;;40.60;32.40;;;;;;5016399;28;20422;-68
2022/06/02 14:17:20;;;;;;;3.33;3.03;;;41.40;31.60;;;;;;5016261;28;20475;-68
2022/06/02 14:20:04;;;;;;;3.57;3.20;;;41.90;30.60;;;;;;5014017;28;20854;-69
2022/06/02 14:22:57;;;;;;;2.97;2.40;;;41.80;30.00;;;;;;5012388;28;20435;-66
2022/06/02 14:25:41;;;;;;;3.83;2.60;;;42.00;30.00;;;;;;5013706;28;20847;-66
2022/06/02 14:28:39;;;;;;;2.90;2.37;;;42.30;29.90;;;;;;5016395;28;20454;-68
2022/06/02 14:31:08;;;;;;;3.93;2.40;;;42.50;29.60;;;;;;5013674;28;20431;-68
2022/06/02 14:33:40;;;;;;;4.70;2.90;;;42.90;29.30;;;;;;5012124;28;20443;-68
2022/06/02 14:36:06;;;;;;;6.13;3.10;;;42.80;28.80;;;;;;5016391;28;20498;-67